createdAt,value
2023-01-29T00:00:18.946Z,99873.75
2023-01-29T00:02:48.014Z,99880.06
2023-01-29T00:05:27.546Z,99874.41
2023-01-29T00:07:57.621Z,99875.72
2023-01-29T00:10:26.188Z,99880.88
2023-01-29T00:12:58.456Z,99881.97
2023-01-29T00:15:26.810Z,99877.69
2023-01-29T00:17:55.125Z,99869.84
2023-01-29T00:20:23.467Z,99877.75
2023-01-29T00:22:51.835Z,99874.47
2023-01-29T00:25:20.205Z,99869.06
2023-01-29T00:27:48.615Z,99873.34
2023-01-29T00:30:19.915Z,99872.47
2023-01-29T00:32:48.739Z,99854.28
2023-01-29T00:35:17.305Z,99850.78
2023-01-29T00:37:45.683Z,99861.88
2023-01-29T00:40:15.131Z,99861.75
2023-01-29T00:43:03.128Z,99862.59
2023-01-29T00:45:33.908Z,99845.94
2023-01-29T00:48:02.329Z,99833.19
2023-01-29T00:50:31.494Z,99839.56
2023-01-29T00:53:00.046Z,99847.47
2023-01-29T00:55:31.182Z,99840.44
2023-01-29T00:57:59.749Z,99845.22
2023-01-29T01:00:28.127Z,99842.16
2023-01-29T01:03:05.799Z,99848.03
2023-01-29T01:05:34.233Z,99847.63
2023-01-29T01:08:02.750Z,99835.44
2023-01-29T01:10:32.658Z,99836.28
2023-01-29T01:13:02.599Z,99823.41
2023-01-29T01:15:32.961Z,99830.88
2023-01-29T01:18:03.394Z,99831.09
2023-01-29T01:20:33.258Z,99844.13
2023-01-29T01:23:02.156Z,99830.94
2023-01-29T01:25:30.522Z,99859.22
2023-01-29T01:28:01.614Z,99857.03
2023-01-29T01:30:30.057Z,99855.00
2023-01-29T01:32:58.412Z,99833.41
2023-01-29T01:35:28.383Z,99841.81
2023-01-29T01:37:56.691Z,99839.25
2023-01-29T01:40:26.728Z,99840.63
2023-01-29T01:42:57.110Z,99845.72
2023-01-29T01:45:29.791Z,99838.31
2023-01-29T01:48:01.457Z,99832.03
2023-01-29T01:50:34.822Z,99811.75
2023-01-29T01:53:07.043Z,99825.50
2023-01-29T01:55:39.191Z,99807.34
2023-01-29T01:58:11.760Z,99818.97
2023-01-29T02:00:40.830Z,99807.81
2023-01-29T02:03:27.993Z,99808.09
2023-01-29T02:06:17.088Z,99809.56
2023-01-29T02:09:10.066Z,99804.56
2023-01-29T02:11:39.266Z,99804.94
2023-01-29T02:14:09.031Z,99789.88
2023-01-29T02:16:37.977Z,99802.25
2023-01-29T02:19:10.119Z,99777.56
2023-01-29T02:21:54.305Z,99796.72
2023-01-29T02:25:10.052Z,99777.50
2023-01-29T02:28:29.494Z,99774.41
2023-01-29T02:31:03.307Z,99769.94
2023-01-29T02:33:37.451Z,99772.72
2023-01-29T02:36:14.530Z,99761.84
2023-01-29T02:38:47.317Z,99769.78
2023-01-29T02:41:18.018Z,99768.09
2023-01-29T02:43:49.816Z,99759.03
2023-01-29T02:46:31.502Z,99753.97
2023-01-29T02:49:03.347Z,99738.75
2023-01-29T02:51:35.681Z,99749.03
2023-01-29T02:54:08.672Z,99739.19
2023-01-29T02:56:40.352Z,99735.91
2023-01-29T02:59:13.406Z,99736.38
2023-01-29T03:01:46.783Z,99723.69
2023-01-29T03:04:19.903Z,99732.13
2023-01-29T03:06:51.317Z,99715.94
2023-01-29T03:09:23.694Z,99725.09
2023-01-29T03:12:20.329Z,99709.88
2023-01-29T03:15:10.381Z,99728.84
2023-01-29T03:17:45.125Z,99720.75
2023-01-29T03:20:18.000Z,99707.06
2023-01-29T03:22:52.167Z,99694.66
2023-01-29T03:25:40.207Z,99697.97
2023-01-29T03:28:26.665Z,99683.91
2023-01-29T03:31:16.109Z,99674.22
2023-01-29T03:33:52.059Z,99664.50
2023-01-29T03:36:23.710Z,99665.72
2023-01-29T03:38:52.433Z,99655.56
2023-01-29T03:41:28.079Z,99661.22
2023-01-29T03:44:03.829Z,99666.03
2023-01-29T03:46:36.881Z,99658.09
2023-01-29T03:49:10.839Z,99654.03
2023-01-29T03:51:45.791Z,99644.78
2023-01-29T03:54:18.070Z,99653.13
2023-01-29T03:56:56.511Z,99646.00
2023-01-29T03:59:34.825Z,99633.78
2023-01-29T04:02:39.870Z,99627.63
2023-01-29T04:05:15.310Z,99637.16
2023-01-29T04:08:00.687Z,99634.47
2023-01-29T04:10:50.356Z,99623.13
2023-01-29T04:13:19.706Z,99625.84
2023-01-29T04:15:49.611Z,99629.31
2023-01-29T04:18:21.190Z,99631.03
2023-01-29T04:21:16.339Z,99627.34
2023-01-29T04:23:45.426Z,99624.66
2023-01-29T04:26:26.646Z,99625.47
2023-01-29T04:29:02.942Z,99622.91
2023-01-29T04:31:36.380Z,99618.53
2023-01-29T04:34:14.459Z,99602.13
2023-01-29T04:36:52.991Z,99604.41
2023-01-29T04:39:26.618Z,99615.56
2023-01-29T04:41:57.116Z,99610.44
2023-01-29T04:44:33.390Z,99615.25
2023-01-29T04:47:07.304Z,99617.53
2023-01-29T04:49:42.556Z,99612.47
2023-01-29T04:52:17.445Z,99607.94
2023-01-29T04:54:50.149Z,99608.44
2023-01-29T04:57:23.330Z,99606.66
2023-01-29T04:59:57.175Z,99598.53
2023-01-29T05:02:26.294Z,99600.72
2023-01-29T05:04:56.583Z,99595.97
2023-01-29T05:07:27.777Z,99589.56
2023-01-29T05:09:56.352Z,99608.31
2023-01-29T05:12:26.613Z,99590.34
2023-01-29T05:14:55.320Z,99598.72
2023-01-29T05:17:29.672Z,99593.84
2023-01-29T05:20:00.810Z,99602.94
2023-01-29T05:22:29.501Z,99603.75
2023-01-29T05:24:59.874Z,99606.19
2023-01-29T05:27:51.401Z,99607.06
2023-01-29T05:30:25.837Z,99608.06
2023-01-29T05:32:54.226Z,99586.38
2023-01-29T05:35:24.031Z,99601.22
2023-01-29T05:37:52.440Z,99611.28
2023-01-29T05:40:20.978Z,99610.56
2023-01-29T05:42:49.455Z,99606.28
2023-01-29T05:45:21.163Z,99595.69
2023-01-29T05:47:57.516Z,99593.19
2023-01-29T05:50:31.316Z,99587.94
2023-01-29T05:53:01.404Z,99602.69
2023-01-29T05:55:30.648Z,99607.75
2023-01-29T05:58:00.717Z,99606.03
2023-01-29T06:00:29.095Z,99612.00
2023-01-29T06:02:57.659Z,99601.69
2023-01-29T06:05:27.856Z,99598.16
2023-01-29T06:07:56.420Z,99613.31
2023-01-29T06:10:25.192Z,99604.22
2023-01-29T06:12:55.304Z,99604.97
2023-01-29T06:15:25.018Z,99602.75
2023-01-29T06:17:55.075Z,99579.75
2023-01-29T06:20:26.081Z,99584.34
2023-01-29T06:23:02.777Z,99584.34
2023-01-29T06:25:31.243Z,99590.41
2023-01-29T06:28:00.684Z,99573.09
2023-01-29T06:30:29.433Z,99579.16
2023-01-29T06:32:59.034Z,99582.16
2023-01-29T06:35:27.602Z,99564.88
2023-01-29T06:37:59.311Z,99580.91
2023-01-29T06:40:29.248Z,99581.56
2023-01-29T06:42:57.730Z,99565.16
2023-01-29T06:45:26.296Z,99573.38
2023-01-29T06:47:54.763Z,99559.03
2023-01-29T06:50:23.288Z,99555.75
2023-01-29T06:52:51.774Z,99553.59
2023-01-29T06:55:22.774Z,99544.34
2023-01-29T06:57:52.675Z,99537.81
2023-01-29T07:00:24.275Z,99533.13
2023-01-29T07:02:53.107Z,99525.00
2023-01-29T07:05:22.547Z,99518.34
2023-01-29T07:07:54.277Z,99518.75
2023-01-29T07:10:22.987Z,99506.88
2023-01-29T07:12:54.625Z,99521.88
2023-01-29T07:15:23.156Z,99517.53
2023-01-29T07:17:58.713Z,99521.31
2023-01-29T07:20:27.714Z,99518.75
2023-01-29T07:22:56.385Z,99507.88
2023-01-29T07:25:27.761Z,99513.03
2023-01-29T07:27:59.923Z,99512.16
2023-01-29T07:30:29.412Z,99521.13
2023-01-29T07:32:57.868Z,99513.09
2023-01-29T07:35:28.460Z,99522.69
2023-01-29T07:37:56.940Z,99511.31
2023-01-29T07:40:25.432Z,99496.50
2023-01-29T07:43:00.951Z,99500.72
2023-01-29T07:45:52.627Z,99491.28
2023-01-29T07:48:26.281Z,99499.94
2023-01-29T07:50:56.275Z,99498.09
2023-01-29T07:53:24.681Z,99483.88
2023-01-29T07:55:58.392Z,99474.44
2023-01-29T07:58:28.434Z,99485.56
2023-01-29T08:00:56.862Z,99501.50
2023-01-29T08:03:27.691Z,99495.66
2023-01-29T08:05:56.062Z,99489.41
2023-01-29T08:08:26.549Z,99465.84
2023-01-29T08:10:54.908Z,99478.94
2023-01-29T08:13:26.158Z,99466.03
2023-01-29T08:15:59.996Z,99460.25
2023-01-29T08:18:29.319Z,99473.47
2023-01-29T08:21:01.474Z,99466.97
2023-01-29T08:23:33.085Z,99456.91
2023-01-29T08:26:03.277Z,99475.72
2023-01-29T08:28:35.315Z,99461.75
2023-01-29T08:31:14.766Z,99468.72
2023-01-29T08:33:43.204Z,99466.81
2023-01-29T08:36:11.948Z,99475.72
2023-01-29T08:38:42.937Z,99473.44
2023-01-29T08:41:11.408Z,99482.41
2023-01-29T08:43:40.662Z,99470.22
2023-01-29T08:46:15.885Z,99473.75
2023-01-29T08:48:44.402Z,99474.25
2023-01-29T08:51:15.113Z,99480.25
2023-01-29T08:53:45.888Z,99468.66
2023-01-29T08:56:16.405Z,99471.09
2023-01-29T08:58:46.746Z,99457.91
2023-01-29T09:01:16.844Z,99458.72
2023-01-29T09:03:46.547Z,99478.16
2023-01-29T09:06:16.110Z,99465.56
2023-01-29T09:08:50.081Z,99466.75
2023-01-29T09:11:18.778Z,99459.91
2023-01-29T09:13:47.142Z,99462.56
2023-01-29T09:16:16.930Z,99465.00
2023-01-29T09:18:45.294Z,99469.06
2023-01-29T09:21:14.929Z,99465.88
2023-01-29T09:23:45.280Z,99454.09
2023-01-29T09:26:13.818Z,99453.50
2023-01-29T09:28:45.285Z,99450.47
2023-01-29T09:31:13.827Z,99441.66
2023-01-29T09:33:46.273Z,99435.56
2023-01-29T09:36:14.820Z,99428.78
2023-01-29T09:38:46.526Z,99430.09
2023-01-29T09:41:28.867Z,99437.22
2023-01-29T09:44:00.607Z,99442.50
2023-01-29T09:46:39.017Z,99441.56
2023-01-29T09:49:16.357Z,99434.75
2023-01-29T09:51:51.856Z,99428.69
2023-01-29T09:54:24.833Z,99440.41
2023-01-29T09:56:56.992Z,99419.59
2023-01-29T09:59:28.496Z,99416.25
2023-01-29T10:02:05.165Z,99402.38
2023-01-29T10:04:54.255Z,99385.19
2023-01-29T10:07:32.704Z,99409.16
2023-01-29T10:10:20.873Z,99406.09
2023-01-29T10:13:04.701Z,99390.34
2023-01-29T10:15:40.386Z,99388.63
2023-01-29T10:18:33.274Z,99373.59
2023-01-29T10:21:14.351Z,99366.56
2023-01-29T10:23:47.379Z,99362.34
2023-01-29T10:26:20.608Z,99348.88
2023-01-29T10:28:51.072Z,99342.72
2023-01-29T10:31:22.321Z,99346.84
2023-01-29T10:34:02.478Z,99340.91
2023-01-29T10:36:39.192Z,99323.16
2023-01-29T10:39:10.731Z,99308.69
2023-01-29T10:41:48.786Z,99305.97
2023-01-29T10:44:25.753Z,99316.91
2023-01-29T10:47:09.147Z,99311.72
2023-01-29T10:49:56.165Z,99320.75
2023-01-29T10:52:36.607Z,99326.59
2023-01-29T10:55:18.155Z,99320.34
2023-01-29T10:57:58.328Z,99314.19
2023-01-29T11:00:28.726Z,99308.31
2023-01-29T11:02:59.972Z,99305.19
2023-01-29T11:05:33.525Z,99284.81
2023-01-29T11:08:06.814Z,99301.44
2023-01-29T11:10:41.978Z,99287.38
2023-01-29T11:13:16.246Z,99294.03
2023-01-29T11:15:45.183Z,99300.88
2023-01-29T11:18:15.833Z,99286.38
2023-01-29T11:20:45.372Z,99284.47
2023-01-29T11:23:29.900Z,99298.34
2023-01-29T11:26:01.566Z,99290.56
2023-01-29T11:28:40.751Z,99288.63
2023-01-29T11:31:26.233Z,99285.75
2023-01-29T11:34:02.159Z,99273.44
2023-01-29T11:36:40.378Z,99267.41
2023-01-29T11:39:21.836Z,99271.66
2023-01-29T11:41:55.329Z,99258.03
2023-01-29T11:44:30.984Z,99271.78
2023-01-29T11:47:10.291Z,99280.16
2023-01-29T11:49:39.852Z,99271.06
2023-01-29T11:52:10.781Z,99264.31
2023-01-29T11:54:45.488Z,99253.19
2023-01-29T11:57:35.457Z,99256.50
2023-01-29T12:00:07.568Z,99246.47
2023-01-29T12:02:40.187Z,99257.03
2023-01-29T12:05:16.615Z,99251.59
2023-01-29T12:07:46.893Z,99250.97
2023-01-29T12:10:35.617Z,99248.22
2023-01-29T12:13:26.451Z,99256.53
2023-01-29T12:16:12.218Z,99252.00
2023-01-29T12:18:45.138Z,99240.97
2023-01-29T12:21:19.066Z,99242.78
2023-01-29T12:23:53.896Z,99255.34
2023-01-29T12:26:27.223Z,99246.47
2023-01-29T12:29:07.281Z,99259.22
2023-01-29T12:31:44.555Z,99241.28
2023-01-29T12:34:17.811Z,99257.50
2023-01-29T12:36:53.310Z,99249.78
2023-01-29T12:39:24.149Z,99256.16
2023-01-29T12:41:59.477Z,99250.72
2023-01-29T12:44:34.709Z,99251.97
2023-01-29T12:47:07.012Z,99246.78
2023-01-29T12:49:39.030Z,99257.75
2023-01-29T12:52:13.546Z,99245.00
2023-01-29T12:54:49.204Z,99252.00
2023-01-29T12:57:23.519Z,99255.53
2023-01-29T12:59:54.957Z,99244.38
2023-01-29T13:02:33.791Z,99251.38
2023-01-29T13:05:07.305Z,99250.28
2023-01-29T13:07:40.223Z,99247.88
2023-01-29T13:10:13.742Z,99240.22
2023-01-29T13:12:57.321Z,99227.34
2023-01-29T13:15:32.715Z,99239.50
2023-01-29T13:18:21.972Z,99227.50
2023-01-29T13:20:51.120Z,99226.28
2023-01-29T13:23:23.001Z,99228.94
2023-01-29T13:25:52.892Z,99217.00
2023-01-29T13:28:24.926Z,99224.59
2023-01-29T13:31:28.856Z,99228.13
2023-01-29T13:34:04.886Z,99223.69
2023-01-29T13:36:33.784Z,99222.75
2023-01-29T13:39:04.919Z,99217.84
2023-01-29T13:41:35.229Z,99221.19
2023-01-29T13:44:07.527Z,99226.53
2023-01-29T13:46:36.073Z,99215.06
2023-01-29T13:49:05.741Z,99210.50
2023-01-29T13:51:37.149Z,99219.94
2023-01-29T13:54:07.755Z,99216.50
2023-01-29T13:56:51.700Z,99209.00
2023-01-29T13:59:25.952Z,99203.72
2023-01-29T14:02:05.541Z,99199.75
2023-01-29T14:04:34.318Z,99198.38
2023-01-29T14:07:05.500Z,99196.59
2023-01-29T14:10:03.762Z,99194.06
2023-01-29T14:12:55.742Z,99193.28
2023-01-29T14:15:34.196Z,99194.88
2023-01-29T14:18:18.576Z,99192.38
2023-01-29T14:20:57.850Z,99195.00
2023-01-29T14:23:40.596Z,99192.72
2023-01-29T14:26:23.318Z,99194.88
2023-01-29T14:28:59.244Z,99193.91
2023-01-29T14:31:46.521Z,99187.84
2023-01-29T14:34:28.027Z,99194.72
2023-01-29T14:36:58.356Z,99185.91
2023-01-29T14:39:34.498Z,99193.63
2023-01-29T14:42:05.506Z,99186.09
2023-01-29T14:45:08.361Z,99186.09
2023-01-29T14:47:56.585Z,99180.31
2023-01-29T14:50:52.470Z,99177.03
2023-01-29T14:53:31.519Z,99177.78
2023-01-29T14:56:03.479Z,99182.13
2023-01-29T14:58:39.855Z,99173.78
2023-01-29T15:01:18.246Z,99166.34
2023-01-29T15:03:50.349Z,99173.06
2023-01-29T15:06:22.943Z,99178.31
2023-01-29T15:08:56.618Z,99176.16
2023-01-29T15:11:37.783Z,99172.84
2023-01-29T15:14:19.006Z,99172.69
2023-01-29T15:16:52.435Z,99182.59
2023-01-29T15:19:27.238Z,99181.09
2023-01-29T15:22:06.758Z,99183.53
2023-01-29T15:24:35.259Z,99172.50
2023-01-29T15:27:03.841Z,99179.09
2023-01-29T15:29:32.407Z,99176.59
2023-01-29T15:32:00.846Z,99186.59
2023-01-29T15:34:30.846Z,99188.13
2023-01-29T15:36:59.216Z,99194.94
2023-01-29T15:39:28.565Z,99184.56
2023-01-29T15:42:13.772Z,99180.94
2023-01-29T15:44:47.207Z,99178.50
2023-01-29T15:47:16.277Z,99167.50
2023-01-29T15:49:49.323Z,99169.84
2023-01-29T15:52:19.968Z,99160.50
2023-01-29T15:54:48.685Z,99146.28
2023-01-29T15:57:22.102Z,99164.25
2023-01-29T15:59:52.176Z,99169.56
2023-01-29T16:02:38.133Z,99169.72
2023-01-29T16:05:12.022Z,99168.59
2023-01-29T16:07:40.900Z,99156.16
2023-01-29T16:10:16.646Z,99157.09
2023-01-29T16:12:47.433Z,99155.63
2023-01-29T16:15:28.382Z,99150.47
2023-01-29T16:17:57.415Z,99151.00
2023-01-29T16:20:39.896Z,99145.69
2023-01-29T16:23:08.805Z,99146.38
2023-01-29T16:25:39.888Z,99161.63
2023-01-29T16:28:11.071Z,99145.63
2023-01-29T16:30:40.356Z,99144.72
2023-01-29T16:33:14.122Z,99153.88
2023-01-29T16:35:44.330Z,99146.50
2023-01-29T16:38:28.714Z,99148.03
2023-01-29T16:41:08.964Z,99147.75
2023-01-29T16:43:58.423Z,99153.47
2023-01-29T16:46:33.491Z,99159.31
2023-01-29T16:49:02.428Z,99145.84
2023-01-29T16:51:37.817Z,99147.41
2023-01-29T16:54:09.554Z,99143.91
2023-01-29T16:56:40.756Z,99128.66
2023-01-29T16:59:17.906Z,99134.75
2023-01-29T17:01:46.463Z,99144.06
2023-01-29T17:04:15.905Z,99126.41
2023-01-29T17:06:47.314Z,99126.28
2023-01-29T17:09:22.725Z,99134.94
2023-01-29T17:11:56.113Z,99126.31
2023-01-29T17:14:26.135Z,99127.13
2023-01-29T17:16:56.432Z,99126.34
2023-01-29T17:19:26.039Z,99110.56
2023-01-29T17:21:56.863Z,99109.31
2023-01-29T17:24:28.485Z,99104.69
2023-01-29T17:26:57.600Z,99114.38
2023-01-29T17:29:28.150Z,99115.56
2023-01-29T17:31:56.795Z,99116.16
2023-01-29T17:34:25.561Z,99118.31
2023-01-29T17:36:57.336Z,99123.31
2023-01-29T17:39:26.254Z,99108.91
2023-01-29T17:41:58.221Z,99122.44
2023-01-29T17:44:27.282Z,99113.97
2023-01-29T17:46:55.731Z,99123.03
2023-01-29T17:49:26.199Z,99110.31
2023-01-29T17:51:57.149Z,99123.19
2023-01-29T17:54:26.785Z,99108.59
2023-01-29T17:56:55.582Z,99105.22
2023-01-29T17:59:25.882Z,99103.63
2023-01-29T18:01:54.722Z,99106.31
2023-01-29T18:04:23.427Z,99105.34
2023-01-29T18:06:52.558Z,99101.22
2023-01-29T18:09:23.073Z,99095.22
2023-01-29T18:11:53.727Z,99093.28
2023-01-29T18:14:22.064Z,99088.78
2023-01-29T18:16:53.040Z,99092.34
2023-01-29T18:19:28.029Z,99095.13
2023-01-29T18:21:56.512Z,99096.78
2023-01-29T18:24:27.369Z,99087.28
2023-01-29T18:26:55.871Z,99087.41
2023-01-29T18:29:30.618Z,99094.19
2023-01-29T18:31:58.798Z,99080.47
2023-01-29T18:34:27.240Z,99078.25
2023-01-29T18:36:59.249Z,99090.81
2023-01-29T18:39:29.100Z,99091.72
2023-01-29T18:41:57.511Z,99092.50
2023-01-29T18:44:25.899Z,99081.56
2023-01-29T18:46:54.434Z,99085.13
2023-01-29T18:49:22.870Z,99081.72
2023-01-29T18:51:52.668Z,99086.66
2023-01-29T18:54:21.670Z,99082.97
2023-01-29T18:57:11.114Z,99091.88
2023-01-29T18:59:39.938Z,99085.84
2023-01-29T19:02:11.294Z,99091.91
2023-01-29T19:04:39.968Z,99086.63
2023-01-29T19:07:09.940Z,99080.31
2023-01-29T19:09:38.609Z,99077.47
2023-01-29T19:12:08.930Z,99072.34
2023-01-29T19:14:37.301Z,99069.59
2023-01-29T19:17:05.790Z,99064.38
2023-01-29T19:19:34.269Z,99049.75
2023-01-29T19:22:04.364Z,99056.75
2023-01-29T19:24:38.801Z,99061.88
2023-01-29T19:27:08.596Z,99063.75
2023-01-29T19:29:37.052Z,99056.25
2023-01-29T19:32:05.617Z,99056.25
2023-01-29T19:34:34.426Z,99051.94
2023-01-29T19:37:02.808Z,99048.50
2023-01-29T19:39:33.881Z,99046.63
2023-01-29T19:42:02.476Z,99041.47
2023-01-29T19:44:32.255Z,99040.88
2023-01-29T19:47:03.868Z,99040.84
2023-01-29T19:49:34.128Z,99025.25
2023-01-29T19:52:02.526Z,99032.31
2023-01-29T19:54:31.016Z,99033.78
2023-01-29T19:56:59.771Z,99037.38
2023-01-29T19:59:28.186Z,99030.78
2023-01-29T20:01:58.029Z,99037.63
2023-01-29T20:04:26.857Z,99034.22
2023-01-29T20:06:55.526Z,99033.16
2023-01-29T20:09:24.094Z,99025.53
2023-01-29T20:11:52.535Z,99021.59
2023-01-29T20:14:21.232Z,99022.47
2023-01-29T20:16:49.716Z,99023.25
2023-01-29T20:19:26.320Z,98998.31
2023-01-29T20:21:54.805Z,98992.34
2023-01-29T20:24:23.609Z,98979.34
2023-01-29T20:26:52.190Z,98991.41
2023-01-29T20:29:21.059Z,98991.97
2023-01-29T20:31:55.087Z,98992.59
2023-01-29T20:34:25.128Z,98989.41
2023-01-29T20:36:53.560Z,98979.47
2023-01-29T20:39:21.941Z,98995.22
2023-01-29T20:41:52.862Z,98992.56
2023-01-29T20:44:21.229Z,98977.25
2023-01-29T20:46:49.699Z,98981.78
2023-01-29T20:49:18.466Z,98970.53
2023-01-29T20:51:50.184Z,98985.03
2023-01-29T20:54:18.537Z,98963.06
2023-01-29T20:56:47.615Z,98982.22
2023-01-29T20:59:16.414Z,98978.50
2023-01-29T21:01:45.547Z,98968.41
2023-01-29T21:04:18.997Z,98972.16
2023-01-29T21:06:48.943Z,98968.47
2023-01-29T21:09:17.374Z,98970.28
2023-01-29T21:11:46.161Z,98968.53
2023-01-29T21:14:14.592Z,98949.91
2023-01-29T21:16:43.029Z,98960.06
2023-01-29T21:19:17.324Z,98952.47
2023-01-29T21:21:45.694Z,98942.38
2023-01-29T21:24:18.748Z,98948.56
2023-01-29T21:26:49.126Z,98944.00
2023-01-29T21:29:17.987Z,98956.28
2023-01-29T21:31:46.614Z,98958.75
2023-01-29T21:34:15.071Z,98960.53
2023-01-29T21:36:43.490Z,98954.53
2023-01-29T21:39:17.735Z,98953.84
2023-01-29T21:42:07.196Z,98947.81
2023-01-29T21:44:36.186Z,98956.59
2023-01-29T21:47:12.415Z,98950.38
2023-01-29T21:49:42.154Z,98959.63
2023-01-29T21:52:11.550Z,98961.28
2023-01-29T21:54:40.941Z,98933.44
2023-01-29T21:57:15.029Z,98946.31
2023-01-29T21:59:43.453Z,98944.34
2023-01-29T22:02:16.197Z,98955.38
2023-01-29T22:04:44.634Z,98950.97
2023-01-29T22:07:13.943Z,98957.72
2023-01-29T22:09:42.494Z,98949.56
2023-01-29T22:12:12.987Z,98942.94
2023-01-29T22:14:42.286Z,98934.78
2023-01-29T22:17:11.038Z,98932.25
2023-01-29T22:19:39.568Z,98916.25
2023-01-29T22:22:10.204Z,98918.00
2023-01-29T22:24:38.791Z,98916.38
2023-01-29T22:27:07.377Z,98907.72
2023-01-29T22:29:37.188Z,98900.38
2023-01-29T22:32:06.096Z,98905.25
2023-01-29T22:34:36.897Z,98896.91
2023-01-29T22:37:05.275Z,98885.06
2023-01-29T22:39:33.802Z,98879.16
2023-01-29T22:42:02.248Z,98874.03
2023-01-29T22:44:30.652Z,98856.72
2023-01-29T22:47:01.055Z,98855.94
2023-01-29T22:49:30.889Z,98860.72
2023-01-29T22:52:11.154Z,98859.72
2023-01-29T22:54:43.258Z,98860.84
2023-01-29T22:57:12.070Z,98859.06
2023-01-29T22:59:40.522Z,98863.38
2023-01-29T23:02:10.903Z,98851.25
2023-01-29T23:04:39.258Z,98848.00
2023-01-29T23:07:07.622Z,98847.28
2023-01-29T23:09:38.474Z,98859.03
2023-01-29T23:12:09.759Z,98846.19
2023-01-29T23:14:38.235Z,98851.25
2023-01-29T23:17:06.658Z,98843.78
2023-01-29T23:19:36.501Z,98837.88
2023-01-29T23:22:05.085Z,98823.69
2023-01-29T23:24:33.499Z,98826.81
2023-01-29T23:27:15.655Z,98820.22
2023-01-29T23:29:44.625Z,98814.78
2023-01-29T23:32:20.150Z,98828.44
2023-01-29T23:34:49.942Z,98828.63
2023-01-29T23:37:20.434Z,98831.88
2023-01-29T23:39:49.571Z,98826.09
2023-01-29T23:42:17.943Z,98819.22
2023-01-29T23:44:46.263Z,98815.88
2023-01-29T23:47:14.695Z,98810.94
2023-01-29T23:49:43.494Z,98799.84
2023-01-29T23:52:13.249Z,98805.09
2023-01-29T23:54:41.652Z,98798.94
2023-01-29T23:57:11.884Z,98800.09
2023-01-29T23:59:40.251Z,98783.94
